• Join FlightAware (Why Join?)
  • Login
  • US Flag 
08:54PM EST


 

Airport Tracker/Info


-or-


 

Live Flight TrackerFlight Track Log ✈ N502QS ✈ 22-Aug-2013 ✈ KSAN - MPMG / PAC

Flight Track Log - Related Links

Times and Time Zones

All times are in EDT time to prevent confusion due to time zone crossing. See the N502QS flight status page for this flight to view local times or setup timezone preferences in your user account.

Time Position Orientation Groundspeed Altitude Reporting Facility
EDT Latitude Longitude Course Direction KTS MPH feet Rate Location/Type
12:15PM 32.7500 -117.2167 283° West 172 198 2,100  Level Southern California TRACON
12:16PM 32.7667 -117.3000 283° West 213 245 5,600 3,000 Climbing Southern California TRACON
12:17PM 32.7500 -117.3500 248° West 228 262 8,100 2,820 Climbing Southern California TRACON
12:18PM 32.7000 -117.3000 140° Southeast 233 268 11,000 1,980 Climbing Southern California TRACON
12:19PM 32.6358 -117.1928 125° Southeast 303 349 13,000 1,800 Climbing Los Angeles Center
12:20PM 32.6000 -117.1167 119° Southeast 362 417 14,600 2,280 Climbing Southern California TRACON
12:21PM 32.5500 -117.0000 117° Southeast 398 458 16,700 2,100 Climbing Southern California TRACON
12:23PM 32.4178 -116.7355 121° Southeast  Level FlightAware Approximate
12:30PM 31.8954 -115.7849 123° Southeast  Level FlightAware Approximate
12:31PM 31.8209 -115.6493 123° Southeast  Level FlightAware Approximate
12:32PM 31.7464 -115.5139 123° Southeast  Level FlightAware Approximate
12:33PM 31.6708 -115.3793 123° Southeast  Level FlightAware Approximate
12:34PM 31.5913 -115.2492 120° Southeast  Level FlightAware Approximate
12:35PM 31.5212 -115.1108 122° Southeast  Level FlightAware Approximate
12:36PM 31.4480 -114.9748 122° Southeast  Level FlightAware Approximate
12:37PM 31.3724 -114.8407 124° Southeast  Level FlightAware Approximate
12:38PM 31.2950 -114.7081 124° Southeast  Level FlightAware Approximate
12:39PM 31.2179 -114.5755 124° Southeast  Level FlightAware Approximate
12:40PM 31.1406 -114.4430 124° Southeast  Level FlightAware Approximate
12:41PM 31.0629 -114.3111 128° Southeast  Level FlightAware Approximate
12:42PM 30.9781 -114.1853 128° Southeast  Level FlightAware Approximate
12:43PM 30.8931 -114.0598 128° Southeast  Level FlightAware Approximate
12:44PM 30.8080 -113.9344 128° Southeast  Level FlightAware Approximate
12:45PM 30.7228 -113.8094 128° Southeast  Level FlightAware Approximate
12:46PM 30.6375 -113.6845 128° Southeast  Level FlightAware Approximate
12:47PM 30.5520 -113.5598 128° Southeast  Level FlightAware Approximate
12:48PM 30.4665 -113.4354 129° Southeast  Level FlightAware Approximate
12:49PM 30.3808 -113.3112 129° Southeast  Level FlightAware Approximate
12:50PM 30.2946 -113.1876 129° Southeast  Level FlightAware Approximate
12:51PM 30.2081 -113.0643 129° Southeast  Level FlightAware Approximate
12:52PM 30.1215 -112.9413 129° Southeast  Level FlightAware Approximate
12:53PM 30.0347 -112.8185 129° Southeast  Level FlightAware Approximate
12:54PM 29.9479 -112.6960 129° Southeast  Level FlightAware Approximate
12:55PM 29.8609 -112.5736 129° Southeast  Level FlightAware Approximate
12:56PM 29.7739 -112.4514 129° Southeast  Level FlightAware Approximate
12:57PM 29.6867 -112.3295 129° Southeast  Level FlightAware Approximate
12:58PM 29.5994 -112.2078 129° Southeast  Level FlightAware Approximate
12:59PM 29.5120 -112.0863 130° Southeast  Level FlightAware Approximate
01:00PM 29.4244 -111.9650 130° Southeast  Level FlightAware Approximate
01:01PM 29.3368 -111.8438 130° Southeast  Level FlightAware Approximate
01:02PM 29.2491 -111.7230 130° Southeast  Level FlightAware Approximate
01:03PM 29.1612 -111.6023 130° Southeast  Level FlightAware Approximate
01:04PM 29.0733 -111.4818 130° Southeast  Level FlightAware Approximate
01:05PM 28.9857 -111.3611 130° Southeast  Level FlightAware Approximate
01:06PM 28.8982 -111.2404 130° Southeast  Level FlightAware Approximate
01:07PM 28.8105 -111.1199 130° Southeast  Level FlightAware Approximate
01:08PM 28.7228 -110.9997 130° Southeast  Level FlightAware Approximate
01:09PM 28.6349 -110.8796 130° Southeast  Level FlightAware Approximate
01:10PM 28.5470 -110.7597 130° Southeast  Level FlightAware Approximate
01:11PM 28.4589 -110.6401 130° Southeast  Level FlightAware Approximate
01:12PM 28.3708 -110.5206 130° Southeast  Level FlightAware Approximate
01:13PM 28.2825 -110.4013 130° Southeast  Level FlightAware Approximate
01:14PM 28.1941 -110.2822 130° Southeast  Level FlightAware Approximate
01:15PM 28.1057 -110.1634 130° Southeast  Level FlightAware Approximate
01:16PM 28.0171 -110.0447 130° Southeast  Level FlightAware Approximate
01:17PM 27.9284 -109.9262 130° Southeast  Level FlightAware Approximate
01:18PM 27.8396 -109.8079 130° Southeast  Level FlightAware Approximate
01:19PM 27.7508 -109.6898 130° Southeast  Level FlightAware Approximate
01:20PM 27.6627 -109.5710 130° Southeast  Level FlightAware Approximate
01:21PM 27.5748 -109.4522 130° Southeast  Level FlightAware Approximate
01:22PM 27.4867 -109.3336 130° Southeast  Level FlightAware Approximate
01:23PM 27.3986 -109.2152 130° Southeast  Level FlightAware Approximate
01:24PM 27.3096 -109.0977 131° Southeast  Level FlightAware Approximate
01:25PM 27.2195 -108.9814 131° Southeast  Level FlightAware Approximate
01:26PM 27.1293 -108.8652 131° Southeast  Level FlightAware Approximate
01:27PM 27.0390 -108.7493 131° Southeast  Level FlightAware Approximate
01:28PM 26.9486 -108.6335 131° Southeast  Level FlightAware Approximate
01:29PM 26.8581 -108.5179 131° Southeast  Level FlightAware Approximate
01:30PM 26.7675 -108.4025 131° Southeast  Level FlightAware Approximate
01:31PM 26.6797 -108.2847 125° Southeast  Level FlightAware Approximate
01:32PM 26.6003 -108.1596 125° Southeast  Level FlightAware Approximate
01:33PM 26.5207 -108.0347 125° Southeast  Level FlightAware Approximate
01:34PM 26.4405 -107.9104 126° Southeast  Level FlightAware Approximate
01:35PM 26.3590 -107.7872 126° Southeast  Level FlightAware Approximate
01:36PM 26.2774 -107.6642 126° Southeast  Level FlightAware Approximate
01:37PM 26.1957 -107.5414 127° Southeast  Level FlightAware Approximate
01:38PM 26.1139 -107.4187 127° Southeast  Level FlightAware Approximate
01:39PM 26.0320 -107.2962 127° Southeast  Level FlightAware Approximate
01:40PM 25.9500 -107.1739 127° Southeast  Level FlightAware Approximate
01:41PM 25.8679 -107.0518 127° Southeast  Level FlightAware Approximate
01:42PM 25.7837 -106.9314 128° Southeast  Level FlightAware Approximate
01:43PM 25.7022 -106.8090 125° Southeast  Level FlightAware Approximate
01:44PM 25.6226 -106.6851 125° Southeast  Level FlightAware Approximate
01:45PM 25.5428 -106.5614 126° Southeast  Level FlightAware Approximate
01:46PM 25.4629 -106.4379 126° Southeast  Level FlightAware Approximate
01:47PM 25.3819 -106.3153 127° Southeast  Level FlightAware Approximate
01:48PM 25.2995 -106.1940 127° Southeast  Level FlightAware Approximate
01:49PM 25.2171 -106.0728 127° Southeast  Level FlightAware Approximate
01:50PM 25.1345 -105.9518 127° Southeast  Level FlightAware Approximate
01:51PM 25.0488 -105.8335 129° Southeast  Level FlightAware Approximate
01:52PM 24.9630 -105.7154 129° Southeast  Level FlightAware Approximate
01:53PM 24.8771 -105.5976 129° Southeast  Level FlightAware Approximate
01:54PM 24.7975 -105.4745 125° Southeast  Level FlightAware Approximate
01:55PM 24.7164 -105.3527 128° Southeast  Level FlightAware Approximate
01:56PM 24.6318 -105.2339 128° Southeast  Level FlightAware Approximate
01:57PM 24.5471 -105.1153 128° Southeast  Level FlightAware Approximate
01:58PM 24.4623 -104.9968 128° Southeast  Level FlightAware Approximate
01:59PM 24.3774 -104.8784 128° Southeast  Level FlightAware Approximate
02:00PM 24.2925 -104.7603 128° Southeast  Level FlightAware Approximate
02:01PM 24.2074 -104.6423 128° Southeast  Level FlightAware Approximate
02:02PM 24.1223 -104.5244 128° Southeast  Level FlightAware Approximate
02:03PM 24.0424 -104.4023 125° Southeast  Level FlightAware Approximate
02:04PM 23.9628 -104.2800 125° Southeast  Level FlightAware Approximate
02:05PM 23.8831 -104.1579 125° Southeast  Level FlightAware Approximate
02:06PM 23.8033 -104.0359 126° Southeast  Level FlightAware Approximate
02:07PM 23.7234 -103.9140 126° Southeast  Level FlightAware Approximate
02:08PM 23.6435 -103.7924 126° Southeast  Level FlightAware Approximate
02:09PM 23.5634 -103.6708 126° Southeast  Level FlightAware Approximate
02:10PM 23.4822 -103.5503 127° Southeast  Level FlightAware Approximate
02:11PM 23.3994 -103.4311 127° Southeast  Level FlightAware Approximate
02:12PM 23.3165 -103.3120 127° Southeast  Level FlightAware Approximate
02:13PM 23.2335 -103.1932 127° Southeast  Level FlightAware Approximate
02:14PM 23.1504 -103.0744 127° Southeast  Level FlightAware Approximate
02:15PM 23.0686 -102.9548 126° Southeast  Level FlightAware Approximate
02:16PM 22.9870 -102.8350 126° Southeast  Level FlightAware Approximate
02:17PM 22.9052 -102.7154 127° Southeast  Level FlightAware Approximate
02:18PM 22.8128 -102.6058 135° Southeast  Level FlightAware Approximate
02:19PM 22.7164 -102.5000 135° Southeast  Level FlightAware Approximate
02:20PM 22.6199 -102.3943 135° Southeast  Level FlightAware Approximate
02:21PM 22.5233 -102.2888 135° Southeast  Level FlightAware Approximate
02:22PM 22.4267 -102.1835 135° Southeast  Level FlightAware Approximate
02:23PM 22.3305 -102.0778 134° Southeast  Level FlightAware Approximate
02:24PM 22.2358 -101.9705 134° Southeast  Level FlightAware Approximate
02:25PM 22.1411 -101.8634 134° Southeast  Level FlightAware Approximate
02:26PM 22.0463 -101.7564 134° Southeast  Level FlightAware Approximate
02:27PM 21.9515 -101.6495 134° Southeast  Level FlightAware Approximate
02:28PM 21.8566 -101.5428 134° Southeast  Level FlightAware Approximate
02:29PM 21.7617 -101.4361 134° Southeast  Level FlightAware Approximate
02:30PM 21.6663 -101.3300 135° Southeast  Level FlightAware Approximate
02:31PM 21.5699 -101.2251 135° Southeast  Level FlightAware Approximate
02:32PM 21.4733 -101.1204 135° Southeast  Level FlightAware Approximate
02:33PM 21.3768 -101.0157 135° Southeast  Level FlightAware Approximate
02:34PM 21.2801 -100.9112 135° Southeast  Level FlightAware Approximate
02:35PM 21.1834 -100.8069 135° Southeast  Level FlightAware Approximate
02:36PM 21.0866 -100.7027 135° Southeast  Level FlightAware Approximate
02:37PM 20.9897 -100.5986 135° Southeast  Level FlightAware Approximate
02:38PM 20.8928 -100.4947 135° Southeast  Level FlightAware Approximate
02:39PM 20.7980 -100.3887 133° Southeast  Level FlightAware Approximate
02:40PM 20.7039 -100.2820 133° Southeast  Level FlightAware Approximate
02:41PM 20.6103 -100.1748 128° Southeast  Level FlightAware Approximate
02:42PM 20.5250 -100.0602 128° Southeast  Level FlightAware Approximate
02:43PM 20.4395 -99.9457 129° Southeast  Level FlightAware Approximate
02:44PM 20.3539 -99.8313 129° Southeast  Level FlightAware Approximate
02:45PM 20.2683 -99.7170 129° Southeast  Level FlightAware Approximate
02:46PM 20.1826 -99.6029 129° Southeast  Level FlightAware Approximate
02:47PM 20.0969 -99.4888 129° Southeast  Level FlightAware Approximate
02:48PM 20.0110 -99.3749 129° Southeast  Level FlightAware Approximate
02:49PM 19.9251 -99.2612 129° Southeast  Level FlightAware Approximate
02:50PM 19.8374 -99.1490 130° Southeast  Level FlightAware Approximate
02:51PM 19.7495 -99.0372 130° Southeast  Level FlightAware Approximate
02:52PM 19.6571 -98.9296 133° Southeast  Level FlightAware Approximate
02:53PM 19.5636 -98.8230 133° Southeast  Level FlightAware Approximate
02:54PM 19.4701 -98.7165 133° Southeast  Level FlightAware Approximate
02:55PM 19.3766 -98.6102 133° Southeast  Level FlightAware Approximate
02:56PM 19.2829 -98.5040 133° Southeast  Level FlightAware Approximate
02:57PM 19.1853 -98.4020 137° Southeast  Level FlightAware Approximate
02:58PM 19.0935 -98.2944 130° Southeast  Level FlightAware Approximate
02:59PM 19.0060 -98.1827 130° Southeast  Level FlightAware Approximate
03:00PM 18.9185 -98.0710 130° Southeast  Level FlightAware Approximate
03:01PM 18.8308 -97.9595 130° Southeast  Level FlightAware Approximate
03:02PM 18.7432 -97.8481 130° Southeast  Level FlightAware Approximate
03:03PM 18.6554 -97.7368 130° Southeast  Level FlightAware Approximate
03:04PM 18.5669 -97.6262 131° Southeast  Level FlightAware Approximate
03:05PM 18.4772 -97.5168 131° Southeast  Level FlightAware Approximate
03:06PM 18.3875 -97.4074 131° Southeast  Level FlightAware Approximate
03:07PM 18.2977 -97.2982 131° Southeast  Level FlightAware Approximate
03:08PM 18.2078 -97.1891 131° Southeast  Level FlightAware Approximate
03:09PM 18.1179 -97.0801 131° Southeast  Level FlightAware Approximate
03:10PM 18.0279 -96.9713 131° Southeast  Level FlightAware Approximate
03:11PM 17.9378 -96.8625 131° Southeast  Level FlightAware Approximate
03:12PM 17.8477 -96.7538 131° Southeast  Level FlightAware Approximate
03:13PM 17.7575 -96.6453 131° Southeast  Level FlightAware Approximate
03:14PM 17.6673 -96.5368 131° Southeast  Level FlightAware Approximate
03:15PM 17.5770 -96.4285 131° Southeast  Level FlightAware Approximate
03:16PM 17.4866 -96.3203 131° Southeast  Level FlightAware Approximate
03:17PM 17.3962 -96.2122 132° Southeast  Level FlightAware Approximate
03:18PM 17.3045 -96.1053 132° Southeast  Level FlightAware Approximate
03:19PM 17.2153 -95.9962 131° Southeast  Level FlightAware Approximate
03:20PM 17.1261 -95.8872 131° Southeast  Level FlightAware Approximate
03:21PM 17.0368 -95.7782 131° Southeast  Level FlightAware Approximate
03:22PM 16.9467 -95.6701 131° Southeast  Level FlightAware Approximate
03:23PM 16.8560 -95.5625 131° Southeast  Level FlightAware Approximate
03:24PM 16.7652 -95.4551 131° Southeast  Level FlightAware Approximate
03:25PM 16.6744 -95.3478 131° Southeast  Level FlightAware Approximate
03:26PM 16.5835 -95.2406 131° Southeast  Level FlightAware Approximate
03:27PM 16.4926 -95.1335 132° Southeast  Level FlightAware Approximate
03:28PM 16.4112 -95.0189 122° Southeast  Level FlightAware Approximate
03:29PM 16.3383 -94.8978 122° Southeast  Level FlightAware Approximate
03:30PM 16.2653 -94.7769 122° Southeast  Level FlightAware Approximate
03:31PM 16.1922 -94.6560 122° Southeast  Level FlightAware Approximate
03:32PM 16.1191 -94.5352 122° Southeast  Level FlightAware Approximate
03:33PM 16.0458 -94.4145 122° Southeast  Level FlightAware Approximate
03:34PM 15.9726 -94.2938 122° Southeast  Level FlightAware Approximate
03:35PM 15.8992 -94.1733 122° Southeast  Level FlightAware Approximate
03:36PM 15.8258 -94.0529 122° Southeast  Level FlightAware Approximate
03:37PM 15.7522 -93.9325 122° Southeast  Level FlightAware Approximate
03:38PM 15.6786 -93.8123 122° Southeast  Level FlightAware Approximate
03:39PM 15.6048 -93.6922 123° Southeast  Level FlightAware Approximate
03:40PM 15.5310 -93.5722 123° Southeast  Level FlightAware Approximate
03:41PM 15.4572 -93.4523 123° Southeast  Level FlightAware Approximate
03:42PM 15.3833 -93.3324 123° Southeast  Level FlightAware Approximate
03:43PM 15.3093 -93.2127 123° Southeast  Level FlightAware Approximate
03:44PM 15.2352 -93.0930 123° Southeast  Level FlightAware Approximate
03:45PM 15.1611 -92.9734 123° Southeast  Level FlightAware Approximate
03:46PM 15.0869 -92.8539 123° Southeast  Level FlightAware Approximate
03:47PM 15.0127 -92.7344 123° Southeast  Level FlightAware Approximate
03:48PM 14.9384 -92.6151 123° Southeast  Level FlightAware Approximate
03:49PM 14.8640 -92.4958 123° Southeast  Level FlightAware Approximate
03:50PM 14.7896 -92.3766 123° Southeast  Level FlightAware Approximate
03:51PM 14.7304 -92.2488 115° Southeast  Level FlightAware Approximate
03:52PM 14.6726 -92.1202 115° Southeast  Level FlightAware Approximate
03:53PM 14.6148 -91.9917 115° Southeast  Level FlightAware Approximate
03:54PM 14.5568 -91.8632 115° Southeast  Level FlightAware Approximate
03:55PM 14.4988 -91.7348 115° Southeast  Level FlightAware Approximate
03:56PM 14.4407 -91.6065 115° Southeast  Level FlightAware Approximate
03:57PM 14.3824 -91.4783 115° Southeast  Level FlightAware Approximate
03:58PM 14.3236 -91.3504 115° Southeast  Level FlightAware Approximate
03:59PM 14.2647 -91.2226 115° Southeast  Level FlightAware Approximate
04:00PM 14.2057 -91.0948 115° Southeast  Level FlightAware Approximate
04:01PM 14.1467 -90.9671 115° Southeast  Level FlightAware Approximate
04:02PM 14.0876 -90.8394 116° Southeast  Level FlightAware Approximate
04:03PM 14.0285 -90.7119 116° Southeast  Level FlightAware Approximate
04:04PM 13.9693 -90.5844 116° Southeast  Level FlightAware Approximate
04:05PM 13.9100 -90.4569 116° Southeast  Level FlightAware Approximate
04:06PM 13.8506 -90.3295 116° Southeast  Level FlightAware Approximate
04:07PM 13.7912 -90.2022 116° Southeast  Level FlightAware Approximate
04:08PM 13.7317 -90.0750 116° Southeast  Level FlightAware Approximate
04:09PM 13.6722 -89.9478 116° Southeast  Level FlightAware Approximate
04:10PM 13.6126 -89.8207 116° Southeast  Level FlightAware Approximate
04:11PM 13.5529 -89.6936 116° Southeast  Level FlightAware Approximate
04:12PM 13.4931 -89.5666 116° Southeast  Level FlightAware Approximate
04:13PM 13.4333 -89.4397 116° Southeast  Level FlightAware Approximate
04:14PM 13.3735 -89.3129 116° Southeast  Level FlightAware Approximate
04:15PM 13.3135 -89.1861 116° Southeast  Level FlightAware Approximate
04:16PM 13.2535 -89.0593 116° Southeast  Level FlightAware Approximate
04:17PM 13.1935 -88.9326 116° Southeast  Level FlightAware Approximate
04:18PM 13.1334 -88.8060 116° Southeast  Level FlightAware Approximate
04:19PM 13.0732 -88.6795 116° Southeast  Level FlightAware Approximate
04:20PM 13.0130 -88.5530 116° Southeast  Level FlightAware Approximate
04:21PM 12.9527 -88.4265 116° Southeast  Level FlightAware Approximate
04:22PM 12.8924 -88.3001 116° Southeast  Level FlightAware Approximate
04:23PM 12.8320 -88.1738 116° Southeast  Level FlightAware Approximate
04:24PM 12.7715 -88.0476 116° Southeast  Level FlightAware Approximate
04:25PM 12.7110 -87.9214 116° Southeast  Level FlightAware Approximate
04:26PM 12.6504 -87.7953 116° Southeast  Level FlightAware Approximate
04:27PM 12.5898 -87.6692 116° Southeast  Level FlightAware Approximate
04:28PM 12.5291 -87.5432 116° Southeast  Level FlightAware Approximate
04:29PM 12.4683 -87.4172 116° Southeast  Level FlightAware Approximate
04:30PM 12.4075 -87.2913 116° Southeast  Level FlightAware Approximate
04:31PM 12.3466 -87.1655 116° Southeast  Level FlightAware Approximate
04:32PM 12.2857 -87.0397 116° Southeast  Level FlightAware Approximate
04:33PM 12.2247 -86.9140 116° Southeast  Level FlightAware Approximate
04:34PM 12.1636 -86.7883 116° Southeast  Level FlightAware Approximate
04:35PM 12.1025 -86.6627 116° Southeast  Level FlightAware Approximate
04:36PM 12.0414 -86.5372 116° Southeast  Level FlightAware Approximate
04:37PM 11.9801 -86.4117 116° Southeast  Level FlightAware Approximate
04:38PM 11.9184 -86.2865 117° Southeast  Level FlightAware Approximate
04:39PM 11.8563 -86.1615 117° Southeast  Level FlightAware Approximate
04:40PM 11.7941 -86.0366 117° Southeast  Level FlightAware Approximate
04:41PM 11.7318 -85.9118 117° Southeast  Level FlightAware Approximate
04:42PM 11.6695 -85.7870 117° Southeast  Level FlightAware Approximate
04:43PM 11.6072 -85.6622 117° Southeast  Level FlightAware Approximate
04:44PM 11.5448 -85.5376 117° Southeast  Level FlightAware Approximate
04:45PM 11.4823 -85.4129 117° Southeast  Level FlightAware Approximate
04:46PM 11.4198 -85.2884 117° Southeast  Level FlightAware Approximate
04:47PM 11.3572 -85.1639 117° Southeast  Level FlightAware Approximate
04:48PM 11.2952 -85.0391 116° Southeast  Level FlightAware Approximate
04:49PM 11.2345 -84.9137 116° Southeast  Level FlightAware Approximate
04:50PM 11.1737 -84.7883 116° Southeast  Level FlightAware Approximate
04:51PM 11.1129 -84.6630 116° Southeast  Level FlightAware Approximate
04:52PM 11.0520 -84.5378 116° Southeast  Level FlightAware Approximate
04:53PM 10.9911 -84.4126 116° Southeast  Level FlightAware Approximate
04:54PM 10.9301 -84.2874 116° Southeast  Level FlightAware Approximate
04:55PM 10.8691 -84.1624 116° Southeast  Level FlightAware Approximate
04:56PM 10.8080 -84.0373 116° Southeast  Level FlightAware Approximate
04:57PM 10.7468 -83.9123 116° Southeast  Level FlightAware Approximate
04:58PM 10.6853 -83.7876 117° Southeast  Level FlightAware Approximate
04:59PM 10.6227 -83.6634 117° Southeast  Level FlightAware Approximate
05:00PM 10.5601 -83.5392 117° Southeast  Level FlightAware Approximate
05:01PM 10.4974 -83.4152 117° Southeast  Level FlightAware Approximate
05:02PM 10.4346 -83.2911 117° Southeast  Level FlightAware Approximate
05:03PM 10.3718 -83.1672 117° Southeast  Level FlightAware Approximate
05:04PM 10.3090 -83.0432 117° Southeast  Level FlightAware Approximate
05:05PM 10.2461 -82.9193 117° Southeast  Level FlightAware Approximate
05:06PM 10.1832 -82.7955 117° Southeast  Level FlightAware Approximate
05:07PM 10.1202 -82.6717 117° Southeast  Level FlightAware Approximate
05:08PM 10.0572 -82.5480 117° Southeast  Level FlightAware Approximate
05:09PM 9.9942 -82.4242 117° Southeast  Level FlightAware Approximate
05:10PM 9.9312 -82.3005 117° Southeast  Level FlightAware Approximate
05:11PM 9.8682 -82.1768 117° Southeast  Level FlightAware Approximate
05:12PM 9.8051 -82.0532 117° Southeast  Level FlightAware Approximate
05:13PM 9.7419 -81.9297 117° Southeast  Level FlightAware Approximate
05:14PM 9.6788 -81.8062 117° Southeast  Level FlightAware Approximate
05:15PM 9.6133 -81.6839 119° Southeast  Level FlightAware Approximate
05:16PM 9.5476 -81.5619 117° Southeast  Level FlightAware Approximate
05:17PM 9.4856 -81.4378 117° Southeast  Level FlightAware Approximate
05:18PM 9.4227 -81.3142 119° Southeast  Level FlightAware Approximate
05:19PM 9.3554 -81.1931 119° Southeast  Level FlightAware Approximate
05:20PM 9.2999 -81.0664 117° Southeast  Level FlightAware Approximate
05:21PM 9.2540 -80.9368 101° East  Level FlightAware Approximate
05:22PM 9.2281 -80.8003 101° East  Level FlightAware Approximate
05:23PM 9.2023 -80.6638 101° East  Level FlightAware Approximate
05:24PM 9.1765 -80.5274 101° East  Level FlightAware Approximate
05:25PM 9.1506 -80.3909 101° East  Level FlightAware Approximate
05:26PM 9.1243 -80.2546 101° East  Level FlightAware Approximate
05:27PM 9.0966 -80.1185 103° East  Level FlightAware Approximate
05:28PM 9.0654 -79.9833 103° East  Level FlightAware Approximate
05:29PM 9.0362 -79.8476 101° East  Level FlightAware Approximate
05:30PM 9.0071 -79.7119 104° East  Level FlightAware Approximate
05:31PM 8.9833 -79.5756 90° East  Level FlightAware Approximate
05:32PM 8.9733 -79.5556 90° East  Level Estimated
05:33PM 8.9733 -79.5556 90° East  Level Estimated
05:34PM 8.9733 -79.5556 90° East  Level Estimated
05:35PM 8.9733 -79.5556 90° East  Level Estimated
05:36PM 8.9733 -79.5556 90° East  Level Estimated
05:37PM 8.9733 -79.5556 90° East  Level Estimated
05:38PM 8.9733 -79.5556 90° East  Level Estimated
05:39PM 8.9733 -79.5556 90° East  Level Estimated
05:40PM 8.9733 -79.5556 90° East  Level Estimated
05:41PM 8.9733 -79.5556 90° East  Level Estimated
05:42PM 8.9733 -79.5556 90° East  Level Estimated
05:43PM 8.9733 -79.5556 90° East  Level Estimated